Molengracht — PCJG — position and weather

sailwx.info

Track history (hours):
 
Tides and Currents Weather Stations Pressure Air Temp Water Temp Dewpoint Dewpoint Depression Visibility Wind Speed Wind Dir Waves Ship Positions

Molengracht

Last reported at 2015-Apr-15 21:33 UTC. Time now 2015-May-06 21:32 UTC.
Position N 31°05' E 122°34'.
Warning: this ship's position is 20 days out of date.

Length 143 m; draft 7 m.

Type: Cargo ship. MMSI: 246770000.

Date/timePositionNaut miles runAvg speedWind from/ knotsBaromVisibWave heightAir tempDewpointWater temp
2015-Apr-15 21:33N 31°05' E 122°34'1010.6
2015-Apr-15 20:33N 31°06' E 122°22'1413.9
2015-Apr-15 19:34N 31°12' E 122°08'1514.5
2015-Apr-15 18:33N 31°16' E 121°51'1313.2
2015-Apr-15 17:33N 31°22' E 121°38'1111.0
2015-Apr-15 16:33N 31°28' E 121°27'4 4.3
2015-Apr-15 15:33N 31°30' E 121°22'0 0.0
2015-Apr-15 14:33N 31°30' E 121°22'0 0.0
2015-Apr-15 13:33N 31°30' E 121°22'0 0.0
2015-Apr-15 12:33N 31°30' E 121°22'0 0.0
2015-Apr-15 11:33N 31°30' E 121°22'0 0.0
2015-Apr-15 10:33N 31°30' E 121°22'0 0.0
2015-Apr-15 09:30N 31°30' E 121°22'0 0.0
2015-Apr-15 08:30N 31°30' E 121°22'0 0.0
2015-Apr-15 07:33N 31°30' E 121°22'0 0.0
2015-Apr-15 06:33N 31°30' E 121°22'0 0.0
2015-Apr-15 05:33N 31°30' E 121°22'0 0.0
2015-Apr-15 04:33N 31°30' E 121°22'0 0.0
2015-Apr-15 03:33N 31°30' E 121°22'0 0.2
2015-Apr-15 02:27N 31°30' E 121°22'0 0.0
2015-Apr-15 01:33N 31°30' E 121°22'0 0.0
2015-Apr-15 00:33N 31°30' E 121°22'0 0.0
2015-Apr-14 23:33N 31°30' E 121°22'0 0.0
2015-Apr-14 22:33N 31°30' E 121°22'0 0.0
2015-Apr-14 21:33N 31°30' E 121°22'0 0.0
2015-Apr-14 20:30N 31°30' E 121°22'0 0.0
2015-Apr-14 19:30N 31°30' E 121°22'0 0.0
2015-Apr-14 18:33N 31°30' E 121°22'0 0.0
2015-Apr-14 17:33N 31°30' E 121°22'0 0.0
2015-Apr-14 16:33N 31°30' E 121°22'0 0.0
2015-Apr-14 15:30N 31°30' E 121°22'0 0.0
2015-Apr-14 14:30N 31°30' E 121°22'0 0.0
2015-Apr-14 13:33N 31°30' E 121°22'0 0.0
2015-Apr-14 12:33N 31°30' E 121°22'0 0.0
2015-Apr-14 11:33N 31°30' E 121°22'0 0.0
2015-Apr-14 10:33N 31°30' E 121°22'0 0.0
2015-Apr-14 09:33N 31°30' E 121°22'0 0.0
2015-Apr-14 08:33N 31°30' E 121°22'0 0.0
2015-Apr-14 07:33N 31°30' E 121°22'0 0.0
2015-Apr-14 06:33N 31°30' E 121°22'0 0.0
2015-Apr-14 05:33N 31°30' E 121°22'0 0.0
2015-Apr-14 04:33N 31°30' E 121°22'0 0.0
2015-Apr-14 03:30N 31°30' E 121°22'0 0.0
2015-Apr-14 02:34N 31°30' E 121°22'5 5.3
2015-Apr-14 01:34N 31°27' E 121°28'1010.1
2015-Apr-14 00:34N 31°22' E 121°38'1312.7
2015-Apr-13 23:33N 31°13' E 121°48'1414.5
2015-Apr-13 22:33N 31°05' E 122°02'9 9.5
2015-Apr-13 21:33N 31°03' E 122°13'1010.3
2015-Apr-13 20:33N 31°01' E 122°25'263 6.7
2015-Apr-12 05:27N 34°56' E 120°05'1112.4
2015-Apr-12 04:33N 34°54' E 119°52'1412.7
2015-Apr-12 03:28N 34°47' E 119°37'9 9.8
2015-Apr-12 02:33N 34°45' E 119°27'0 0.3
2015-Apr-12 01:33N 34°44' E 119°27'0 0.0
2015-Apr-12 00:33N 34°44' E 119°27'0 0.0
2015-Apr-11 23:27N 34°44' E 119°27'0 0.0
2015-Apr-11 22:33N 34°44' E 119°27'0 0.0
2015-Apr-11 21:33N 34°44' E 119°27'0 0.0
2015-Apr-11 20:33N 34°44' E 119°27'0 0.0
2015-Apr-11 19:33N 34°44' E 119°27'0 0.0
2015-Apr-11 18:33N 34°44' E 119°27'0 0.0
2015-Apr-11 17:33N 34°44' E 119°27'0 0.0
2015-Apr-11 16:33N 34°44' E 119°27'0 0.0
2015-Apr-11 15:32N 34°44' E 119°27'0 0.0
2015-Apr-11 14:27N 34°44' E 119°27'0 0.0
2015-Apr-11 13:33N 34°44' E 119°27'0 0.0
2015-Apr-11 12:26N 34°44' E 119°27'0 0.0
2015-Apr-11 11:32N 34°44' E 119°27'0 0.0
2015-Apr-11 10:32N 34°44' E 119°27'0 0.0
2015-Apr-11 09:32N 34°44' E 119°27'0 0.0
2015-Apr-11 08:27N 34°44' E 119°27'0 0.1
2015-Apr-11 07:33N 34°44' E 119°27'0 0.0
2015-Apr-11 06:33N 34°44' E 119°27'0 0.0
2015-Apr-11 05:32N 34°44' E 119°27'0 0.0
2015-Apr-11 04:32N 34°44' E 119°27'0 0.0
2015-Apr-11 03:32N 34°44' E 119°27'0 0.0
2015-Apr-11 02:32N 34°44' E 119°27'0 0.0
2015-Apr-11 01:32N 34°44' E 119°27'0 0.0
2015-Apr-11 00:26N 34°44' E 119°27'0 0.0
2015-Apr-10 23:26N 34°44' E 119°27'0 0.0
2015-Apr-10 22:32N 34°44' E 119°27'0 0.0
2015-Apr-10 21:32N 34°44' E 119°27'0 0.0
2015-Apr-10 20:32N 34°44' E 119°27'0 0.0
2015-Apr-10 19:32N 34°44' E 119°27'0 0.0
2015-Apr-10 18:32N 34°44' E 119°27'0 0.0
2015-Apr-10 17:32N 34°44' E 119°27'0 0.0
2015-Apr-10 16:32N 34°44' E 119°27'0 0.0
2015-Apr-10 15:26N 34°44' E 119°27'0 0.0
2015-Apr-10 14:26N 34°44' E 119°27'0 0.0
2015-Apr-10 13:32N 34°44' E 119°27'0 0.0
2015-Apr-10 12:32N 34°44' E 119°27'0 0.0
2015-Apr-10 11:26N 34°44' E 119°27'0 0.0
2015-Apr-10 10:26N 34°44' E 119°27'0 0.0
2015-Apr-10 09:32N 34°44' E 119°27'0 0.0
2015-Apr-10 08:32N 34°44' E 119°27'0 0.0
2015-Apr-10 07:32N 34°44' E 119°27'0 0.0
2015-Apr-10 06:33N 34°44' E 119°27'7 6.8
2015-Apr-10 05:33N 34°46' E 119°35'12 9.5
2015-Apr-10 04:16N 34°53' E 119°47'0 0.0
2015-Apr-09 22:12N 34°53' E 119°47'23 8.8
2015-Apr-09 19:33N 34°55' E 120°15'1313.4
2015-Apr-09 18:33N 34°53' E 120°32'1313.4
2015-Apr-09 17:33N 34°50' E 120°48'  
Track history (hours):
 
Tides and Currents Weather Stations Pressure Air Temp Water Temp Dewpoint Dewpoint Depression Visibility Wind Speed Wind Dir Waves Ship Positions

Molengracht

Last reported at 2015-Apr-15 21:33 UTC. Time now 2015-May-06 21:32 UTC.
Position N 31°05' E 122°34'.
Warning: this ship's position is 20 days out of date.

Length 143 m; draft 7 m.

Type: Cargo ship. MMSI: 246770000.

Date/timePositionNaut miles runAvg speedWind from/ knotsBaromVisibWave heightAir tempDewpointWater temp
2015-Apr-15 21:33N 31°05' E 122°34'1010.6
2015-Apr-15 20:33N 31°06' E 122°22'1413.9
2015-Apr-15 19:34N 31°12' E 122°08'1514.5
2015-Apr-15 18:33N 31°16' E 121°51'1313.2
2015-Apr-15 17:33N 31°22' E 121°38'1111.0
2015-Apr-15 16:33N 31°28' E 121°27'4 4.3
2015-Apr-15 15:33N 31°30' E 121°22'0 0.0
2015-Apr-15 14:33N 31°30' E 121°22'0 0.0
2015-Apr-15 13:33N 31°30' E 121°22'0 0.0
2015-Apr-15 12:33N 31°30' E 121°22'0 0.0
2015-Apr-15 11:33N 31°30' E 121°22'0 0.0
2015-Apr-15 10:33N 31°30' E 121°22'0 0.0
2015-Apr-15 09:30N 31°30' E 121°22'0 0.0
2015-Apr-15 08:30N 31°30' E 121°22'0 0.0
2015-Apr-15 07:33N 31°30' E 121°22'0 0.0
2015-Apr-15 06:33N 31°30' E 121°22'0 0.0
2015-Apr-15 05:33N 31°30' E 121°22'0 0.0
2015-Apr-15 04:33N 31°30' E 121°22'0 0.0
2015-Apr-15 03:33N 31°30' E 121°22'0 0.2
2015-Apr-15 02:27N 31°30' E 121°22'0 0.0
2015-Apr-15 01:33N 31°30' E 121°22'0 0.0
2015-Apr-15 00:33N 31°30' E 121°22'0 0.0
2015-Apr-14 23:33N 31°30' E 121°22'0 0.0
2015-Apr-14 22:33N 31°30' E 121°22'0 0.0
2015-Apr-14 21:33N 31°30' E 121°22'0 0.0
2015-Apr-14 20:30N 31°30' E 121°22'0 0.0
2015-Apr-14 19:30N 31°30' E 121°22'0 0.0
2015-Apr-14 18:33N 31°30' E 121°22'0 0.0
2015-Apr-14 17:33N 31°30' E 121°22'0 0.0
2015-Apr-14 16:33N 31°30' E 121°22'0 0.0
2015-Apr-14 15:30N 31°30' E 121°22'0 0.0
2015-Apr-14 14:30N 31°30' E 121°22'0 0.0
2015-Apr-14 13:33N 31°30' E 121°22'0 0.0
2015-Apr-14 12:33N 31°30' E 121°22'0 0.0
2015-Apr-14 11:33N 31°30' E 121°22'0 0.0
2015-Apr-14 10:33N 31°30' E 121°22'0 0.0
2015-Apr-14 09:33N 31°30' E 121°22'0 0.0
2015-Apr-14 08:33N 31°30' E 121°22'0 0.0
2015-Apr-14 07:33N 31°30' E 121°22'0 0.0
2015-Apr-14 06:33N 31°30' E 121°22'0 0.0
2015-Apr-14 05:33N 31°30' E 121°22'0 0.0
2015-Apr-14 04:33N 31°30' E 121°22'0 0.0
2015-Apr-14 03:30N 31°30' E 121°22'0 0.0
2015-Apr-14 02:34N 31°30' E 121°22'5 5.3
2015-Apr-14 01:34N 31°27' E 121°28'1010.1
2015-Apr-14 00:34N 31°22' E 121°38'1312.7
2015-Apr-13 23:33N 31°13' E 121°48'1414.5
2015-Apr-13 22:33N 31°05' E 122°02'9 9.5
2015-Apr-13 21:33N 31°03' E 122°13'1010.3
2015-Apr-13 20:33N 31°01' E 122°25'263 6.7
2015-Apr-12 05:27N 34°56' E 120°05'1112.4
2015-Apr-12 04:33N 34°54' E 119°52'1412.7
2015-Apr-12 03:28N 34°47' E 119°37'9 9.8
2015-Apr-12 02:33N 34°45' E 119°27'0 0.3
2015-Apr-12 01:33N 34°44' E 119°27'0 0.0
2015-Apr-12 00:33N 34°44' E 119°27'0 0.0
2015-Apr-11 23:27N 34°44' E 119°27'0 0.0
2015-Apr-11 22:33N 34°44' E 119°27'0 0.0
2015-Apr-11 21:33N 34°44' E 119°27'0 0.0
2015-Apr-11 20:33N 34°44' E 119°27'0 0.0
2015-Apr-11 19:33N 34°44' E 119°27'0 0.0
2015-Apr-11 18:33N 34°44' E 119°27'0 0.0
2015-Apr-11 17:33N 34°44' E 119°27'0 0.0
2015-Apr-11 16:33N 34°44' E 119°27'0 0.0
2015-Apr-11 15:32N 34°44' E 119°27'0 0.0
2015-Apr-11 14:27N 34°44' E 119°27'0 0.0
2015-Apr-11 13:33N 34°44' E 119°27'0 0.0
2015-Apr-11 12:26N 34°44' E 119°27'0 0.0
2015-Apr-11 11:32N 34°44' E 119°27'0 0.0
2015-Apr-11 10:32N 34°44' E 119°27'0 0.0
2015-Apr-11 09:32N 34°44' E 119°27'0 0.0
2015-Apr-11 08:27N 34°44' E 119°27'0 0.1
2015-Apr-11 07:33N 34°44' E 119°27'0 0.0
2015-Apr-11 06:33N 34°44' E 119°27'0 0.0
2015-Apr-11 05:32N 34°44' E 119°27'0 0.0
2015-Apr-11 04:32N 34°44' E 119°27'0 0.0
2015-Apr-11 03:32N 34°44' E 119°27'0 0.0
2015-Apr-11 02:32N 34°44' E 119°27'0 0.0
2015-Apr-11 01:32N 34°44' E 119°27'0 0.0
2015-Apr-11 00:26N 34°44' E 119°27'0 0.0
2015-Apr-10 23:26N 34°44' E 119°27'0 0.0
2015-Apr-10 22:32N 34°44' E 119°27'0 0.0
2015-Apr-10 21:32N 34°44' E 119°27'0 0.0
2015-Apr-10 20:32N 34°44' E 119°27'0 0.0
2015-Apr-10 19:32N 34°44' E 119°27'0 0.0
2015-Apr-10 18:32N 34°44' E 119°27'0 0.0
2015-Apr-10 17:32N 34°44' E 119°27'0 0.0
2015-Apr-10 16:32N 34°44' E 119°27'0 0.0
2015-Apr-10 15:26N 34°44' E 119°27'0 0.0
2015-Apr-10 14:26N 34°44' E 119°27'0 0.0
2015-Apr-10 13:32N 34°44' E 119°27'0 0.0
2015-Apr-10 12:32N 34°44' E 119°27'0 0.0
2015-Apr-10 11:26N 34°44' E 119°27'0 0.0
2015-Apr-10 10:26N 34°44' E 119°27'0 0.0
2015-Apr-10 09:32N 34°44' E 119°27'0 0.0
2015-Apr-10 08:32N 34°44' E 119°27'0 0.0
2015-Apr-10 07:32N 34°44' E 119°27'0 0.0
2015-Apr-10 06:33N 34°44' E 119°27'7 6.8
2015-Apr-10 05:33N 34°46' E 119°35'12 9.5
2015-Apr-10 04:16N 34°53' E 119°47'0 0.0
2015-Apr-09 22:12N 34°53' E 119°47'23 8.8
2015-Apr-09 19:33N 34°55' E 120°15'1313.4
2015-Apr-09 18:33N 34°53' E 120°32'1313.4
2015-Apr-09 17:33N 34°50' E 120°48'  

Dump ship's entire track history